メインページ
METAR-TAF:

METAR-TAF

空港 :

イルクーツク, ロシア

イルクーツク国際空港

緯度: 52-16N, 経度: 104-19E, 海抜: 513m

現時点の気象観測

当レポートは36分前の23:00(UTC)に作成
の風 2kt
気温 3°C
湿度 93%
気圧 1005 hPa
視程10km以上
1,500メートル以下は雲なし、積乱雲なし

METAR: UIII 232300Z 10001MPS CAVOK 03/02 Q1005 R12/60D NOSIG RMK QFE712/0949

時間: 07:36 (23:36 UTC)

予報

当レポートは3時間36分前の20:00(UTC)に作成
予報は23日の 21時(UTC)から 24日の 21時(UTC)まで有効
東/南東の風 6kt
視程10km以上
24日の 00時(UTC)から 24日の 02時(UTC)まで徐々に
南/南東の風 16kt
24日の 10時(UTC)から 24日の 12時(UTC)まで徐々に
北西の風 16kt、最大25ktの突風を伴う
高度2000ftの雲は散在している, 積乱雲.
24日の 1400時(UTC)から
北西の風 19kt、最大29ktの突風を伴う
視程: 2100m
高度500ftの千切れ雲あり, 積乱雲.
弱いにわか雪, 雨
24日の 14時(UTC)から 24日の 21時(UTC)まで一時的に
北西の風 29kt、最大39ktの突風を伴う
視程: 0900m
高度300ftの
激しいにわか雪

TAF: UIII 232000Z 2321/2421 12003MPS 9999 NSC BECMG 2400/2402 16008MPS BECMG 2410/2412 32008G13MPS SCT020CB FM241400 32010G15MPS 2100 -SHSNRA BKN005CB TEMPO 2414/2421 32015G20MPS 0900 +SHSN VV003

4,000以上の空港の気象観測と天気予報(METAR報とTAF報)

利用可能な観測所は地図上に黄色い丸と赤い丸で示す。

丸の上にカーソルを重ねると観測所名を参照できる。

次にクリックすると気象観測と天気予報を参照できる。

マップの切り替え:黒色「×」印の緑ボタンをクリックして拡大、「-」印の緑ボタンをクリックして縮小、緑色の三角印をクリックして隣りの地図に切り替え


METAR-TAF: